sensor_id;sensor_type;location;lat;lon;timestamp;temperature;humidity
30001;DHT22;16845;48.670;9.000;2022-11-06T00:00:08;4.90;99.90
30001;DHT22;16845;48.670;9.000;2022-11-06T00:02:36;4.90;99.90
30001;DHT22;16845;48.670;9.000;2022-11-06T00:05:05;4.90;99.90
30001;DHT22;16845;48.670;9.000;2022-11-06T00:07:51;4.80;99.90
30001;DHT22;16845;48.670;9.000;2022-11-06T00:10:20;4.80;99.90
30001;DHT22;16845;48.670;9.000;2022-11-06T00:12:49;4.80;99.90
30001;DHT22;16845;48.670;9.000;2022-11-06T00:15:17;4.70;99.90
30001;DHT22;16845;48.670;9.000;2022-11-06T00:17:48;4.60;99.90
30001;DHT22;16845;48.670;9.000;2022-11-06T00:20:16;4.50;99.90
30001;DHT22;16845;48.670;9.000;2022-11-06T00:22:44;4.60;99.90
30001;DHT22;16845;48.670;9.000;2022-11-06T00:25:12;4.60;99.90
30001;DHT22;16845;48.670;9.000;2022-11-06T00:27:41;4.70;99.90
30001;DHT22;16845;48.670;9.000;2022-11-06T00:30:10;4.70;99.90
30001;DHT22;16845;48.670;9.000;2022-11-06T00:32:38;4.70;99.90
30001;DHT22;16845;48.670;9.000;2022-11-06T00:35:07;4.70;99.90
30001;DHT22;16845;48.670;9.000;2022-11-06T00:37:35;4.80;99.90
30001;DHT22;16845;48.670;9.000;2022-11-06T00:40:03;4.70;99.90
30001;DHT22;16845;48.670;9.000;2022-11-06T00:42:31;4.70;99.90
30001;DHT22;16845;48.670;9.000;2022-11-06T00:45:02;4.70;99.90
30001;DHT22;16845;48.670;9.000;2022-11-06T00:47:30;4.80;99.90
30001;DHT22;16845;48.670;9.000;2022-11-06T00:49:58;4.80;99.90
30001;DHT22;16845;48.670;9.000;2022-11-06T00:52:28;4.80;99.90
30001;DHT22;16845;48.670;9.000;2022-11-06T00:54:56;4.80;99.90
30001;DHT22;16845;48.670;9.000;2022-11-06T00:57:24;4.80;99.90
30001;DHT22;16845;48.670;9.000;2022-11-06T00:59:52;4.80;99.90
30001;DHT22;16845;48.670;9.000;2022-11-06T01:02:21;4.70;99.90
30001;DHT22;16845;48.670;9.000;2022-11-06T01:04:49;4.70;99.90
30001;DHT22;16845;48.670;9.000;2022-11-06T01:07:17;4.60;99.90
30001;DHT22;16845;48.670;9.000;2022-11-06T01:09:45;4.50;99.90
30001;DHT22;16845;48.670;9.000;2022-11-06T01:12:14;4.40;99.90
30001;DHT22;16845;48.670;9.000;2022-11-06T01:14:43;4.40;99.90
30001;DHT22;16845;48.670;9.000;2022-11-06T01:17:11;4.50;99.90
30001;DHT22;16845;48.670;9.000;2022-11-06T01:19:41;4.50;99.90
30001;DHT22;16845;48.670;9.000;2022-11-06T01:22:09;4.50;99.90
30001;DHT22;16845;48.670;9.000;2022-11-06T01:24:37;4.40;99.90
30001;DHT22;16845;48.670;9.000;2022-11-06T01:27:05;4.30;99.90
30001;DHT22;16845;48.670;9.000;2022-11-06T01:29:53;4.30;99.90
30001;DHT22;16845;48.670;9.000;2022-11-06T01:32:21;4.10;99.90
30001;DHT22;16845;48.670;9.000;2022-11-06T01:34:50;4.00;99.90
30001;DHT22;16845;48.670;9.000;2022-11-06T01:37:18;3.80;99.90
30001;DHT22;16845;48.670;9.000;2022-11-06T01:39:48;3.70;99.90
30001;DHT22;16845;48.670;9.000;2022-11-06T01:42:18;3.60;99.90
30001;DHT22;16845;48.670;9.000;2022-11-06T01:45:24;3.60;99.90
30001;DHT22;16845;48.670;9.000;2022-11-06T01:47:53;3.60;99.90
30001;DHT22;16845;48.670;9.000;2022-11-06T01:50:22;3.60;99.90
30001;DHT22;16845;48.670;9.000;2022-11-06T01:52:51;3.70;99.90
30001;DHT22;16845;48.670;9.000;2022-11-06T01:55:22;3.80;99.90
30001;DHT22;16845;48.670;9.000;2022-11-06T01:57:51;4.00;99.90
30001;DHT22;16845;48.670;9.000;2022-11-06T02:00:20;4.10;99.90
30001;DHT22;16845;48.670;9.000;2022-11-06T02:02:48;4.20;99.90
30001;DHT22;16845;48.670;9.000;2022-11-06T02:05:17;4.30;99.90
30001;DHT22;16845;48.670;9.000;2022-11-06T02:07:47;4.30;99.90
30001;DHT22;16845;48.670;9.000;2022-11-06T02:10:15;4.30;99.90
30001;DHT22;16845;48.670;9.000;2022-11-06T02:12:57;4.40;99.90
30001;DHT22;16845;48.670;9.000;2022-11-06T02:15:37;4.50;99.90
30001;DHT22;16845;48.670;9.000;2022-11-06T02:18:38;4.50;99.90
30001;DHT22;16845;48.670;9.000;2022-11-06T02:24:25;4.60;99.90
30001;DHT22;16845;48.670;9.000;2022-11-06T02:27:05;4.60;99.90
30001;DHT22;16845;48.670;9.000;2022-11-06T02:29:44;4.60;99.90
30001;DHT22;16845;48.670;9.000;2022-11-06T02:32:18;4.60;99.90
30001;DHT22;16845;48.670;9.000;2022-11-06T02:34:49;4.60;99.90
30001;DHT22;16845;48.670;9.000;2022-11-06T02:37:22;4.60;99.90
30001;DHT22;16845;48.670;9.000;2022-11-06T02:39:54;4.70;99.90
30001;DHT22;16845;48.670;9.000;2022-11-06T02:42:27;4.60;99.90
30001;DHT22;16845;48.670;9.000;2022-11-06T02:44:57;4.70;99.90
30001;DHT22;16845;48.670;9.000;2022-11-06T02:47:28;4.60;99.90
30001;DHT22;16845;48.670;9.000;2022-11-06T02:50:03;4.50;99.90
30001;DHT22;16845;48.670;9.000;2022-11-06T02:52:34;4.50;99.90
30001;DHT22;16845;48.670;9.000;2022-11-06T02:55:07;4.50;99.90
30001;DHT22;16845;48.670;9.000;2022-11-06T02:57:42;4.40;99.90
30001;DHT22;16845;48.670;9.000;2022-11-06T03:00:13;4.40;99.90
30001;DHT22;16845;48.670;9.000;2022-11-06T03:02:43;4.40;99.90
30001;DHT22;16845;48.670;9.000;2022-11-06T03:05:18;4.30;99.90
30001;DHT22;16845;48.670;9.000;2022-11-06T03:07:51;4.20;99.90
30001;DHT22;16845;48.670;9.000;2022-11-06T03:10:24;4.10;99.90
30001;DHT22;16845;48.670;9.000;2022-11-06T03:12:59;4.00;99.90
30001;DHT22;16845;48.670;9.000;2022-11-06T03:15:33;4.00;99.90
30001;DHT22;16845;48.670;9.000;2022-11-06T03:18:09;3.90;99.90
30001;DHT22;16845;48.670;9.000;2022-11-06T03:20:44;3.90;99.90
30001;DHT22;16845;48.670;9.000;2022-11-06T03:23:21;3.80;99.90
30001;DHT22;16845;48.670;9.000;2022-11-06T03:25:53;3.80;99.90
30001;DHT22;16845;48.670;9.000;2022-11-06T03:28:28;3.90;99.90
30001;DHT22;16845;48.670;9.000;2022-11-06T03:31:02;4.00;99.90
30001;DHT22;16845;48.670;9.000;2022-11-06T03:33:35;4.00;99.90
30001;DHT22;16845;48.670;9.000;2022-11-06T03:36:08;3.90;99.90
30001;DHT22;16845;48.670;9.000;2022-11-06T03:38:40;3.90;99.90
30001;DHT22;16845;48.670;9.000;2022-11-06T03:41:13;3.80;99.90
30001;DHT22;16845;48.670;9.000;2022-11-06T03:43:46;3.90;99.90
30001;DHT22;16845;48.670;9.000;2022-11-06T03:46:18;3.90;99.90
30001;DHT22;16845;48.670;9.000;2022-11-06T03:48:53;4.00;99.90
30001;DHT22;16845;48.670;9.000;2022-11-06T03:51:24;4.10;99.90
30001;DHT22;16845;48.670;9.000;2022-11-06T03:53:58;4.00;99.90
30001;DHT22;16845;48.670;9.000;2022-11-06T03:56:32;4.00;99.90
30001;DHT22;16845;48.670;9.000;2022-11-06T03:59:05;4.10;99.90
30001;DHT22;16845;48.670;9.000;2022-11-06T04:01:37;4.10;99.90
30001;DHT22;16845;48.670;9.000;2022-11-06T04:04:10;4.00;99.90
30001;DHT22;16845;48.670;9.000;2022-11-06T04:06:41;4.00;99.90
30001;DHT22;16845;48.670;9.000;2022-11-06T04:09:12;4.00;99.90
30001;DHT22;16845;48.670;9.000;2022-11-06T04:12:00;4.00;99.90
30001;DHT22;16845;48.670;9.000;2022-11-06T04:14:52;3.90;99.90
30001;DHT22;16845;48.670;9.000;2022-11-06T04:17:23;3.80;99.90
30001;DHT22;16845;48.670;9.000;2022-11-06T04:19:56;3.70;99.90
30001;DHT22;16845;48.670;9.000;2022-11-06T04:22:33;3.70;99.90
30001;DHT22;16845;48.670;9.000;2022-11-06T04:25:14;3.70;99.90
30001;DHT22;16845;48.670;9.000;2022-11-06T04:28:11;3.70;99.90
30001;DHT22;16845;48.670;9.000;2022-11-06T04:30:51;3.60;99.90
30001;DHT22;16845;48.670;9.000;2022-11-06T04:33:24;3.40;99.90
30001;DHT22;16845;48.670;9.000;2022-11-06T04:35:59;3.30;99.90
30001;DHT22;16845;48.670;9.000;2022-11-06T04:38:35;3.20;99.90
30001;DHT22;16845;48.670;9.000;2022-11-06T04:41:12;3.10;99.90
30001;DHT22;16845;48.670;9.000;2022-11-06T04:43:45;3.10;99.90
30001;DHT22;16845;48.670;9.000;2022-11-06T04:46:19;3.00;99.90
30001;DHT22;16845;48.670;9.000;2022-11-06T04:48:48;2.90;99.90
30001;DHT22;16845;48.670;9.000;2022-11-06T04:51:20;2.80;99.90
30001;DHT22;16845;48.670;9.000;2022-11-06T04:53:51;2.80;99.90
30001;DHT22;16845;48.670;9.000;2022-11-06T04:56:22;2.70;99.90
30001;DHT22;16845;48.670;9.000;2022-11-06T04:58:55;2.70;99.90
30001;DHT22;16845;48.670;9.000;2022-11-06T05:01:24;2.60;99.90
30001;DHT22;16845;48.670;9.000;2022-11-06T05:03:52;2.50;99.90
30001;DHT22;16845;48.670;9.000;2022-11-06T05:06:20;2.50;99.90
30001;DHT22;16845;48.670;9.000;2022-11-06T05:08:55;2.40;99.90
30001;DHT22;16845;48.670;9.000;2022-11-06T05:11:24;2.50;99.90
30001;DHT22;16845;48.670;9.000;2022-11-06T05:13:52;2.50;99.90
30001;DHT22;16845;48.670;9.000;2022-11-06T05:16:20;2.60;99.90
30001;DHT22;16845;48.670;9.000;2022-11-06T05:18:49;2.60;99.90
30001;DHT22;16845;48.670;9.000;2022-11-06T05:21:17;2.60;99.90
30001;DHT22;16845;48.670;9.000;2022-11-06T05:24:04;2.60;99.90
30001;DHT22;16845;48.670;9.000;2022-11-06T05:26:32;2.60;99.90
30001;DHT22;16845;48.670;9.000;2022-11-06T05:29:00;2.50;99.90
30001;DHT22;16845;48.670;9.000;2022-11-06T05:31:28;2.40;99.90
30001;DHT22;16845;48.670;9.000;2022-11-06T05:33:57;2.30;99.90
30001;DHT22;16845;48.670;9.000;2022-11-06T05:36:25;2.10;99.90
30001;DHT22;16845;48.670;9.000;2022-11-06T05:38:53;2.10;99.90
30001;DHT22;16845;48.670;9.000;2022-11-06T05:41:21;2.10;99.90
30001;DHT22;16845;48.670;9.000;2022-11-06T05:43:49;2.20;99.90
30001;DHT22;16845;48.670;9.000;2022-11-06T05:46:17;2.20;99.90
30001;DHT22;16845;48.670;9.000;2022-11-06T05:49:07;2.20;99.90
30001;DHT22;16845;48.670;9.000;2022-11-06T05:51:36;2.20;99.90
30001;DHT22;16845;48.670;9.000;2022-11-06T05:54:04;2.20;99.90
30001;DHT22;16845;48.670;9.000;2022-11-06T05:56:31;2.30;99.90
30001;DHT22;16845;48.670;9.000;2022-11-06T05:58:59;2.30;99.90
30001;DHT22;16845;48.670;9.000;2022-11-06T06:01:27;2.40;99.90
30001;DHT22;16845;48.670;9.000;2022-11-06T06:03:56;2.50;99.90
30001;DHT22;16845;48.670;9.000;2022-11-06T06:06:25;2.50;99.90
30001;DHT22;16845;48.670;9.000;2022-11-06T06:08:53;2.50;99.90
30001;DHT22;16845;48.670;9.000;2022-11-06T06:11:21;2.60;99.90
30001;DHT22;16845;48.670;9.000;2022-11-06T06:13:49;2.60;99.90
30001;DHT22;16845;48.670;9.000;2022-11-06T06:16:17;2.60;99.90
30001;DHT22;16845;48.670;9.000;2022-11-06T06:18:47;2.60;99.90
30001;DHT22;16845;48.670;9.000;2022-11-06T06:21:16;2.50;99.90
30001;DHT22;16845;48.670;9.000;2022-11-06T06:23:45;2.50;99.90
30001;DHT22;16845;48.670;9.000;2022-11-06T06:26:13;2.40;99.90
30001;DHT22;16845;48.670;9.000;2022-11-06T06:28:41;2.40;99.90
30001;DHT22;16845;48.670;9.000;2022-11-06T06:31:09;2.40;99.90
30001;DHT22;16845;48.670;9.000;2022-11-06T06:33:38;2.30;99.90
30001;DHT22;16845;48.670;9.000;2022-11-06T06:36:06;2.30;99.90
30001;DHT22;16845;48.670;9.000;2022-11-06T06:38:34;2.30;99.90
30001;DHT22;16845;48.670;9.000;2022-11-06T06:41:06;2.30;99.90
30001;DHT22;16845;48.670;9.000;2022-11-06T06:43:34;2.30;99.90
30001;DHT22;16845;48.670;9.000;2022-11-06T06:46:04;2.30;99.90
30001;DHT22;16845;48.670;9.000;2022-11-06T06:48:32;2.40;99.90
30001;DHT22;16845;48.670;9.000;2022-11-06T06:51:01;2.40;99.90
30001;DHT22;16845;48.670;9.000;2022-11-06T06:53:30;2.40;99.90
30001;DHT22;16845;48.670;9.000;2022-11-06T06:55:58;2.50;99.90
30001;DHT22;16845;48.670;9.000;2022-11-06T06:58:29;2.60;99.90
30001;DHT22;16845;48.670;9.000;2022-11-06T07:00:58;2.70;99.90
30001;DHT22;16845;48.670;9.000;2022-11-06T07:03:28;2.80;99.90
30001;DHT22;16845;48.670;9.000;2022-11-06T07:05:56;3.00;99.90
30001;DHT22;16845;48.670;9.000;2022-11-06T07:08:25;3.10;99.90
30001;DHT22;16845;48.670;9.000;2022-11-06T07:10:57;3.10;99.90
30001;DHT22;16845;48.670;9.000;2022-11-06T07:13:27;3.10;99.90
30001;DHT22;16845;48.670;9.000;2022-11-06T07:16:02;3.10;99.90
30001;DHT22;16845;48.670;9.000;2022-11-06T07:18:30;3.10;99.90
30001;DHT22;16845;48.670;9.000;2022-11-06T07:20:58;3.20;99.90
30001;DHT22;16845;48.670;9.000;2022-11-06T07:23:26;3.30;99.90
30001;DHT22;16845;48.670;9.000;2022-11-06T07:25:54;3.30;99.90
30001;DHT22;16845;48.670;9.000;2022-11-06T07:28:22;3.40;99.90
30001;DHT22;16845;48.670;9.000;2022-11-06T07:30:51;3.50;99.90
30001;DHT22;16845;48.670;9.000;2022-11-06T07:33:19;3.60;99.90
30001;DHT22;16845;48.670;9.000;2022-11-06T07:35:47;3.60;99.90
30001;DHT22;16845;48.670;9.000;2022-11-06T07:38:15;3.70;99.90
30001;DHT22;16845;48.670;9.000;2022-11-06T07:40:43;3.70;99.90
30001;DHT22;16845;48.670;9.000;2022-11-06T07:43:11;3.80;99.90
30001;DHT22;16845;48.670;9.000;2022-11-06T07:45:39;3.90;99.90
30001;DHT22;16845;48.670;9.000;2022-11-06T07:48:08;4.00;99.90
30001;DHT22;16845;48.670;9.000;2022-11-06T07:50:37;4.10;99.90
30001;DHT22;16845;48.670;9.000;2022-11-06T07:53:04;4.30;99.90
30001;DHT22;16845;48.670;9.000;2022-11-06T07:55:32;4.40;99.90
30001;DHT22;16845;48.670;9.000;2022-11-06T07:58:07;4.50;99.90
30001;DHT22;16845;48.670;9.000;2022-11-06T08:00:35;4.70;99.90
30001;DHT22;16845;48.670;9.000;2022-11-06T08:03:03;4.70;99.90
30001;DHT22;16845;48.670;9.000;2022-11-06T08:05:33;4.70;99.90
30001;DHT22;16845;48.670;9.000;2022-11-06T08:08:00;4.80;99.90
30001;DHT22;16845;48.670;9.000;2022-11-06T08:10:28;4.70;99.90
30001;DHT22;16845;48.670;9.000;2022-11-06T08:12:58;4.80;99.90
30001;DHT22;16845;48.670;9.000;2022-11-06T08:15:27;4.90;99.90
30001;DHT22;16845;48.670;9.000;2022-11-06T08:17:54;4.90;99.90
30001;DHT22;16845;48.670;9.000;2022-11-06T08:20:25;5.00;99.90
30001;DHT22;16845;48.670;9.000;2022-11-06T08:22:58;5.00;99.90
30001;DHT22;16845;48.670;9.000;2022-11-06T08:25:27;5.10;99.90
30001;DHT22;16845;48.670;9.000;2022-11-06T08:27:56;5.20;99.90
30001;DHT22;16845;48.670;9.000;2022-11-06T08:30:25;5.30;99.90
30001;DHT22;16845;48.670;9.000;2022-11-06T08:32:53;5.30;99.90
30001;DHT22;16845;48.670;9.000;2022-11-06T08:35:22;5.30;99.90
30001;DHT22;16845;48.670;9.000;2022-11-06T08:37:50;5.40;99.90
30001;DHT22;16845;48.670;9.000;2022-11-06T08:40:19;5.40;99.90
30001;DHT22;16845;48.670;9.000;2022-11-06T08:42:57;5.50;99.90
30001;DHT22;16845;48.670;9.000;2022-11-06T08:45:26;5.60;99.90
30001;DHT22;16845;48.670;9.000;2022-11-06T08:47:54;5.70;99.90
30001;DHT22;16845;48.670;9.000;2022-11-06T08:50:22;5.80;99.90
30001;DHT22;16845;48.670;9.000;2022-11-06T08:52:49;6.00;99.90
30001;DHT22;16845;48.670;9.000;2022-11-06T08:55:19;6.20;99.90
30001;DHT22;16845;48.670;9.000;2022-11-06T08:57:46;6.40;99.90
30001;DHT22;16845;48.670;9.000;2022-11-06T09:00:15;6.50;99.90
30001;DHT22;16845;48.670;9.000;2022-11-06T09:02:43;6.60;99.90
30001;DHT22;16845;48.670;9.000;2022-11-06T09:05:11;6.60;99.90
30001;DHT22;16845;48.670;9.000;2022-11-06T09:07:39;6.80;99.90
30001;DHT22;16845;48.670;9.000;2022-11-06T09:10:07;7.00;99.90
30001;DHT22;16845;48.670;9.000;2022-11-06T09:12:37;7.00;99.90
30001;DHT22;16845;48.670;9.000;2022-11-06T09:15:06;7.10;99.90
30001;DHT22;16845;48.670;9.000;2022-11-06T09:17:34;7.20;99.90
30001;DHT22;16845;48.670;9.000;2022-11-06T09:20:08;7.40;99.90
30001;DHT22;16845;48.670;9.000;2022-11-06T09:22:36;7.50;99.90
30001;DHT22;16845;48.670;9.000;2022-11-06T09:25:05;7.60;99.90
30001;DHT22;16845;48.670;9.000;2022-11-06T09:27:41;7.60;99.90
30001;DHT22;16845;48.670;9.000;2022-11-06T09:30:11;7.70;99.90
30001;DHT22;16845;48.670;9.000;2022-11-06T09:32:44;7.50;99.90
30001;DHT22;16845;48.670;9.000;2022-11-06T09:35:12;7.60;99.90
30001;DHT22;16845;48.670;9.000;2022-11-06T09:37:40;7.70;99.90
30001;DHT22;16845;48.670;9.000;2022-11-06T09:40:19;7.60;99.90
30001;DHT22;16845;48.670;9.000;2022-11-06T09:42:57;7.60;99.90
30001;DHT22;16845;48.670;9.000;2022-11-06T09:45:29;7.40;99.90
30001;DHT22;16845;48.670;9.000;2022-11-06T09:48:02;7.20;99.90
30001;DHT22;16845;48.670;9.000;2022-11-06T09:50:34;7.40;99.90
30001;DHT22;16845;48.670;9.000;2022-11-06T09:53:07;7.50;99.90
30001;DHT22;16845;48.670;9.000;2022-11-06T09:55:38;7.60;99.90
30001;DHT22;16845;48.670;9.000;2022-11-06T09:58:12;8.10;99.90
30001;DHT22;16845;48.670;9.000;2022-11-06T10:00:42;8.60;99.90
30001;DHT22;16845;48.670;9.000;2022-11-06T10:03:15;9.10;99.90
30001;DHT22;16845;48.670;9.000;2022-11-06T10:05:45;9.90;99.90
30001;DHT22;16845;48.670;9.000;2022-11-06T10:08:15;10.30;99.90
30001;DHT22;16845;48.670;9.000;2022-11-06T10:10:52;10.00;99.90
30001;DHT22;16845;48.670;9.000;2022-11-06T10:13:28;10.00;99.90
30001;DHT22;16845;48.670;9.000;2022-11-06T10:16:03;9.90;99.90
30001;DHT22;16845;48.670;9.000;2022-11-06T10:18:43;9.80;99.90
30001;DHT22;16845;48.670;9.000;2022-11-06T10:21:21;9.80;99.90
30001;DHT22;16845;48.670;9.000;2022-11-06T10:23:52;9.60;99.90
30001;DHT22;16845;48.670;9.000;2022-11-06T10:26:27;9.70;99.90
30001;DHT22;16845;48.670;9.000;2022-11-06T10:29:25;9.70;99.90
30001;DHT22;16845;48.670;9.000;2022-11-06T10:32:07;9.70;99.90
30001;DHT22;16845;48.670;9.000;2022-11-06T10:34:40;9.80;99.90
30001;DHT22;16845;48.670;9.000;2022-11-06T10:37:12;9.70;99.90
30001;DHT22;16845;48.670;9.000;2022-11-06T10:39:44;9.90;99.90
30001;DHT22;16845;48.670;9.000;2022-11-06T10:42:16;10.10;99.90
30001;DHT22;16845;48.670;9.000;2022-11-06T10:44:49;10.00;99.90
30001;DHT22;16845;48.670;9.000;2022-11-06T10:47:21;9.90;99.90
30001;DHT22;16845;48.670;9.000;2022-11-06T10:49:51;10.10;99.90
30001;DHT22;16845;48.670;9.000;2022-11-06T10:52:41;10.20;99.90
30001;DHT22;16845;48.670;9.000;2022-11-06T10:55:37;10.10;99.90
30001;DHT22;16845;48.670;9.000;2022-11-06T10:58:10;10.40;99.90
30001;DHT22;16845;48.670;9.000;2022-11-06T11:00:42;10.50;99.90
30001;DHT22;16845;48.670;9.000;2022-11-06T11:03:18;10.60;99.90
30001;DHT22;16845;48.670;9.000;2022-11-06T11:05:48;10.80;99.90
30001;DHT22;16845;48.670;9.000;2022-11-06T11:08:38;10.80;99.90
30001;DHT22;16845;48.670;9.000;2022-11-06T11:11:21;11.00;99.90
30001;DHT22;16845;48.670;9.000;2022-11-06T11:14:18;11.30;99.90
30001;DHT22;16845;48.670;9.000;2022-11-06T11:16:49;11.90;99.90
30001;DHT22;16845;48.670;9.000;2022-11-06T11:19:33;12.30;99.90
30001;DHT22;16845;48.670;9.000;2022-11-06T11:22:03;12.50;99.90
30001;DHT22;16845;48.670;9.000;2022-11-06T11:24:32;12.40;99.90
30001;DHT22;16845;48.670;9.000;2022-11-06T11:27:01;12.00;99.90
30001;DHT22;16845;48.670;9.000;2022-11-06T11:29:32;11.70;99.90
30001;DHT22;16845;48.670;9.000;2022-11-06T11:32:05;11.50;99.90
30001;DHT22;16845;48.670;9.000;2022-11-06T11:34:35;11.30;99.90
30001;DHT22;16845;48.670;9.000;2022-11-06T11:37:21;11.20;99.90
30001;DHT22;16845;48.670;9.000;2022-11-06T11:39:50;11.00;99.90
30001;DHT22;16845;48.670;9.000;2022-11-06T11:42:24;10.80;99.90
30001;DHT22;16845;48.670;9.000;2022-11-06T11:45:13;10.50;99.90
30001;DHT22;16845;48.670;9.000;2022-11-06T11:47:44;10.60;99.90
30001;DHT22;16845;48.670;9.000;2022-11-06T11:50:22;10.40;99.90
30001;DHT22;16845;48.670;9.000;2022-11-06T11:52:53;10.40;99.90
30001;DHT22;16845;48.670;9.000;2022-11-06T11:55:24;10.30;99.90
30001;DHT22;16845;48.670;9.000;2022-11-06T11:57:55;10.50;99.90
30001;DHT22;16845;48.670;9.000;2022-11-06T12:00:25;10.40;99.90
30001;DHT22;16845;48.670;9.000;2022-11-06T12:02:57;10.20;99.90
30001;DHT22;16845;48.670;9.000;2022-11-06T12:05:31;10.30;99.90
30001;DHT22;16845;48.670;9.000;2022-11-06T12:08:00;10.40;99.90
30001;DHT22;16845;48.670;9.000;2022-11-06T12:10:31;10.70;99.90
30001;DHT22;16845;48.670;9.000;2022-11-06T12:13:02;10.90;99.90
30001;DHT22;16845;48.670;9.000;2022-11-06T12:15:39;11.20;99.90
30001;DHT22;16845;48.670;9.000;2022-11-06T12:18:14;11.60;99.90
30001;DHT22;16845;48.670;9.000;2022-11-06T12:20:49;12.00;99.90
30001;DHT22;16845;48.670;9.000;2022-11-06T12:23:24;12.40;99.90
30001;DHT22;16845;48.670;9.000;2022-11-06T12:25:58;12.80;99.90
30001;DHT22;16845;48.670;9.000;2022-11-06T12:28:30;13.00;99.90
30001;DHT22;16845;48.670;9.000;2022-11-06T12:31:04;12.50;99.90
30001;DHT22;16845;48.670;9.000;2022-11-06T12:33:37;12.00;99.90
30001;DHT22;16845;48.670;9.000;2022-11-06T12:36:27;11.70;99.90
30001;DHT22;16845;48.670;9.000;2022-11-06T12:39:03;11.80;99.90
30001;DHT22;16845;48.670;9.000;2022-11-06T12:41:34;11.90;99.90
30001;DHT22;16845;48.670;9.000;2022-11-06T12:44:09;11.90;99.90
30001;DHT22;16845;48.670;9.000;2022-11-06T12:46:43;11.60;99.90
30001;DHT22;16845;48.670;9.000;2022-11-06T12:49:45;11.80;99.90
30001;DHT22;16845;48.670;9.000;2022-11-06T12:52:28;12.30;99.90
30001;DHT22;16845;48.670;9.000;2022-11-06T12:55:20;12.50;99.90
30001;DHT22;16845;48.670;9.000;2022-11-06T12:58:10;13.20;99.90
30001;DHT22;16845;48.670;9.000;2022-11-06T13:00:52;13.20;99.90
30001;DHT22;16845;48.670;9.000;2022-11-06T13:03:45;13.20;99.90
30001;DHT22;16845;48.670;9.000;2022-11-06T13:06:24;13.20;99.90
30001;DHT22;16845;48.670;9.000;2022-11-06T13:08:57;13.30;99.90
30001;DHT22;16845;48.670;9.000;2022-11-06T13:11:34;12.90;99.90
30001;DHT22;16845;48.670;9.000;2022-11-06T13:14:10;12.70;99.90
30001;DHT22;16845;48.670;9.000;2022-11-06T13:16:46;12.70;99.90
30001;DHT22;16845;48.670;9.000;2022-11-06T13:19:19;12.60;99.90
30001;DHT22;16845;48.670;9.000;2022-11-06T13:22:05;12.40;99.90
30001;DHT22;16845;48.670;9.000;2022-11-06T13:24:38;12.20;99.90
30001;DHT22;16845;48.670;9.000;2022-11-06T13:27:14;11.90;99.90
30001;DHT22;16845;48.670;9.000;2022-11-06T13:29:45;11.70;99.90
30001;DHT22;16845;48.670;9.000;2022-11-06T13:32:15;11.50;99.90
30001;DHT22;16845;48.670;9.000;2022-11-06T13:34:47;11.40;99.90
30001;DHT22;16845;48.670;9.000;2022-11-06T13:37:28;11.40;99.90
30001;DHT22;16845;48.670;9.000;2022-11-06T13:40:01;11.30;99.90
30001;DHT22;16845;48.670;9.000;2022-11-06T13:42:36;11.20;99.90
30001;DHT22;16845;48.670;9.000;2022-11-06T13:45:07;11.00;99.90
30001;DHT22;16845;48.670;9.000;2022-11-06T13:47:54;10.90;99.90
30001;DHT22;16845;48.670;9.000;2022-11-06T13:50:30;11.00;99.90
30001;DHT22;16845;48.670;9.000;2022-11-06T13:53:04;10.90;99.90
30001;DHT22;16845;48.670;9.000;2022-11-06T13:55:49;10.90;99.90
30001;DHT22;16845;48.670;9.000;2022-11-06T13:58:54;10.80;99.90
30001;DHT22;16845;48.670;9.000;2022-11-06T14:01:36;10.70;99.90
30001;DHT22;16845;48.670;9.000;2022-11-06T14:04:33;10.70;99.90
30001;DHT22;16845;48.670;9.000;2022-11-06T14:07:06;10.60;99.90
30001;DHT22;16845;48.670;9.000;2022-11-06T14:09:40;10.60;99.90
30001;DHT22;16845;48.670;9.000;2022-11-06T14:12:14;10.60;99.90
30001;DHT22;16845;48.670;9.000;2022-11-06T14:14:44;10.50;99.90
30001;DHT22;16845;48.670;9.000;2022-11-06T14:17:19;10.50;99.90
30001;DHT22;16845;48.670;9.000;2022-11-06T14:20:05;10.40;99.90
30001;DHT22;16845;48.670;9.000;2022-11-06T14:22:34;10.30;99.90
30001;DHT22;16845;48.670;9.000;2022-11-06T14:28:05;10.10;99.90
30001;DHT22;16845;48.670;9.000;2022-11-06T14:30:42;10.20;99.90
30001;DHT22;16845;48.670;9.000;2022-11-06T14:33:58;10.10;99.90
30001;DHT22;16845;48.670;9.000;2022-11-06T14:36:29;10.10;99.90
30001;DHT22;16845;48.670;9.000;2022-11-06T14:38:58;10.00;99.90
30001;DHT22;16845;48.670;9.000;2022-11-06T14:41:52;9.90;99.90
30001;DHT22;16845;48.670;9.000;2022-11-06T14:44:29;9.80;99.90
30001;DHT22;16845;48.670;9.000;2022-11-06T14:47:01;9.70;99.90
30001;DHT22;16845;48.670;9.000;2022-11-06T14:49:34;9.60;99.90
30001;DHT22;16845;48.670;9.000;2022-11-06T14:52:06;9.60;99.90
30001;DHT22;16845;48.670;9.000;2022-11-06T14:54:37;9.60;99.90
30001;DHT22;16845;48.670;9.000;2022-11-06T14:57:08;9.60;99.90
30001;DHT22;16845;48.670;9.000;2022-11-06T14:59:41;9.50;99.90
30001;DHT22;16845;48.670;9.000;2022-11-06T15:02:16;9.60;99.90
30001;DHT22;16845;48.670;9.000;2022-11-06T15:04:50;9.60;99.90
30001;DHT22;16845;48.670;9.000;2022-11-06T15:07:32;9.60;99.90
30001;DHT22;16845;48.670;9.000;2022-11-06T15:10:46;9.50;99.90
30001;DHT22;16845;48.670;9.000;2022-11-06T15:13:26;9.40;99.90
30001;DHT22;16845;48.670;9.000;2022-11-06T15:16:09;9.30;99.90
30001;DHT22;16845;48.670;9.000;2022-11-06T15:18:43;9.20;99.90
30001;DHT22;16845;48.670;9.000;2022-11-06T15:21:21;9.20;99.90
30001;DHT22;16845;48.670;9.000;2022-11-06T15:23:56;9.00;99.90
30001;DHT22;16845;48.670;9.000;2022-11-06T15:26:32;8.90;99.90
30001;DHT22;16845;48.670;9.000;2022-11-06T15:29:12;8.80;99.90
30001;DHT22;16845;48.670;9.000;2022-11-06T15:31:47;8.70;99.90
30001;DHT22;16845;48.670;9.000;2022-11-06T15:34:19;8.60;99.90
30001;DHT22;16845;48.670;9.000;2022-11-06T15:36:52;8.50;99.90
30001;DHT22;16845;48.670;9.000;2022-11-06T15:39:32;8.40;99.90
30001;DHT22;16845;48.670;9.000;2022-11-06T15:42:07;8.40;99.90
30001;DHT22;16845;48.670;9.000;2022-11-06T15:44:39;8.40;99.90
30001;DHT22;16845;48.670;9.000;2022-11-06T15:47:19;8.40;99.90
30001;DHT22;16845;48.670;9.000;2022-11-06T15:49:48;8.40;99.90
30001;DHT22;16845;48.670;9.000;2022-11-06T15:52:31;8.30;99.90
30001;DHT22;16845;48.670;9.000;2022-11-06T15:54:59;8.30;99.90
30001;DHT22;16845;48.670;9.000;2022-11-06T15:57:32;8.20;99.90
30001;DHT22;16845;48.670;9.000;2022-11-06T16:00:07;8.10;99.90
30001;DHT22;16845;48.670;9.000;2022-11-06T16:02:47;8.10;99.90
30001;DHT22;16845;48.670;9.000;2022-11-06T16:05:16;8.10;99.90
30001;DHT22;16845;48.670;9.000;2022-11-06T16:07:45;8.00;99.90
30001;DHT22;16845;48.670;9.000;2022-11-06T16:10:15;8.00;99.90
30001;DHT22;16845;48.670;9.000;2022-11-06T16:12:43;8.00;99.90
30001;DHT22;16845;48.670;9.000;2022-11-06T16:15:44;8.00;99.90
30001;DHT22;16845;48.670;9.000;2022-11-06T16:18:16;8.10;99.90
30001;DHT22;16845;48.670;9.000;2022-11-06T16:20:48;8.10;99.90
30001;DHT22;16845;48.670;9.000;2022-11-06T16:23:19;8.20;99.90
30001;DHT22;16845;48.670;9.000;2022-11-06T16:26:02;8.30;99.90